sensor_id;sensor_type;location;lat;lon;timestamp;temperature;humidity
56436;DHT22;42335;44.872;20.658;2023-03-22T00:00:52;307.60;2304.00
56436;DHT22;42335;44.872;20.658;2023-03-22T00:03:18;307.60;2304.00
56436;DHT22;42335;44.872;20.658;2023-03-22T00:05:44;307.60;2304.00
56436;DHT22;42335;44.872;20.658;2023-03-22T00:08:10;307.60;2304.00
56436;DHT22;42335;44.872;20.658;2023-03-22T00:10:39;307.60;2304.00
56436;DHT22;42335;44.872;20.658;2023-03-22T00:13:06;307.60;2304.00
56436;DHT22;42335;44.872;20.658;2023-03-22T00:15:32;307.70;2304.00
56436;DHT22;42335;44.872;20.658;2023-03-22T00:17:58;307.50;2304.00
56436;DHT22;42335;44.872;20.658;2023-03-22T00:20:28;307.60;2304.00
56436;DHT22;42335;44.872;20.658;2023-03-22T00:22:59;307.50;2304.00
56436;DHT22;42335;44.872;20.658;2023-03-22T00:25:25;307.50;2304.00
56436;DHT22;42335;44.872;20.658;2023-03-22T00:27:51;307.50;2304.00
56436;DHT22;42335;44.872;20.658;2023-03-22T00:30:17;307.40;2304.00
56436;DHT22;42335;44.872;20.658;2023-03-22T00:32:44;307.60;2304.00
56436;DHT22;42335;44.872;20.658;2023-03-22T00:35:11;307.30;2304.00
56436;DHT22;42335;44.872;20.658;2023-03-22T00:37:37;307.30;2304.00
56436;DHT22;42335;44.872;20.658;2023-03-22T00:40:11;307.20;2304.00
56436;DHT22;42335;44.872;20.658;2023-03-22T00:42:38;307.20;2304.00
56436;DHT22;42335;44.872;20.658;2023-03-22T00:45:05;307.20;2304.00
56436;DHT22;42335;44.872;20.658;2023-03-22T00:47:31;307.40;2304.00
56436;DHT22;42335;44.872;20.658;2023-03-22T00:49:57;307.40;2304.00
56436;DHT22;42335;44.872;20.658;2023-03-22T00:52:23;307.30;2304.00
56436;DHT22;42335;44.872;20.658;2023-03-22T00:54:49;307.40;2304.00
56436;DHT22;42335;44.872;20.658;2023-03-22T00:57:16;307.30;2304.00
56436;DHT22;42335;44.872;20.658;2023-03-22T00:59:42;307.40;2304.00
56436;DHT22;42335;44.872;20.658;2023-03-22T01:02:09;307.40;2304.00
56436;DHT22;42335;44.872;20.658;2023-03-22T01:04:38;307.40;2304.00
56436;DHT22;42335;44.872;20.658;2023-03-22T01:07:04;307.30;2304.00
56436;DHT22;42335;44.872;20.658;2023-03-22T01:09:32;307.30;2304.00
56436;DHT22;42335;44.872;20.658;2023-03-22T01:11:59;307.30;2304.00
56436;DHT22;42335;44.872;20.658;2023-03-22T01:14:26;307.20;2304.00
56436;DHT22;42335;44.872;20.658;2023-03-22T01:16:52;307.20;2304.00
56436;DHT22;42335;44.872;20.658;2023-03-22T01:19:22;307.20;2304.00
56436;DHT22;42335;44.872;20.658;2023-03-22T01:21:48;307.30;2304.00
56436;DHT22;42335;44.872;20.658;2023-03-22T01:24:14;307.20;2304.00
56436;DHT22;42335;44.872;20.658;2023-03-22T01:26:40;307.20;2304.00
56436;DHT22;42335;44.872;20.658;2023-03-22T01:29:05;282.40;2278.40
56436;DHT22;42335;44.872;20.658;2023-03-22T01:31:31;282.50;2278.40
56436;DHT22;42335;44.872;20.658;2023-03-22T01:33:57;282.50;2278.40
56436;DHT22;42335;44.872;20.658;2023-03-22T01:36:22;282.50;2278.40
56436;DHT22;42335;44.872;20.658;2023-03-22T01:38:48;282.30;2278.40
56436;DHT22;42335;44.872;20.658;2023-03-22T01:41:15;282.50;2278.40
56436;DHT22;42335;44.872;20.658;2023-03-22T01:43:41;282.50;2278.40
56436;DHT22;42335;44.872;20.658;2023-03-22T01:46:07;282.30;2278.40
56436;DHT22;42335;44.872;20.658;2023-03-22T01:48:41;282.30;2278.40
56436;DHT22;42335;44.872;20.658;2023-03-22T01:51:17;282.40;2278.40
56436;DHT22;42335;44.872;20.658;2023-03-22T01:53:53;282.20;2278.40
56436;DHT22;42335;44.872;20.658;2023-03-22T01:56:23;282.10;2278.40
56436;DHT22;42335;44.872;20.658;2023-03-22T01:58:50;282.10;2278.40
56436;DHT22;42335;44.872;20.658;2023-03-22T02:01:16;282.00;2278.40
56436;DHT22;42335;44.872;20.658;2023-03-22T02:06:18;281.90;2278.40
56436;DHT22;42335;44.872;20.658;2023-03-22T02:08:44;281.90;2278.40
56436;DHT22;42335;44.872;20.658;2023-03-22T02:11:15;281.90;2278.40
56436;DHT22;42335;44.872;20.658;2023-03-22T02:16:23;281.70;2278.40
56436;DHT22;42335;44.872;20.658;2023-03-22T02:18:55;281.70;2278.40
56436;DHT22;42335;44.872;20.658;2023-03-22T02:28:36;281.60;2278.40
56436;DHT22;42335;44.872;20.658;2023-03-22T02:33:43;281.70;2278.40
56436;DHT22;42335;44.872;20.658;2023-03-22T02:36:17;281.70;2278.40
56436;DHT22;42335;44.872;20.658;2023-03-22T02:44:24;281.60;2278.40
56436;DHT22;42335;44.872;20.658;2023-03-22T02:47:01;281.60;2278.40
56436;DHT22;42335;44.872;20.658;2023-03-22T02:52:40;281.80;2278.40
56436;DHT22;42335;44.872;20.658;2023-03-22T02:57:55;281.80;2278.40
56436;DHT22;42335;44.872;20.658;2023-03-22T03:00:24;281.90;2278.40
56436;DHT22;42335;44.872;20.658;2023-03-22T03:02:58;281.80;2278.40
56436;DHT22;42335;44.872;20.658;2023-03-22T03:05:28;282.00;2278.40
56436;DHT22;42335;44.872;20.658;2023-03-22T03:07:59;281.90;2278.40
56436;DHT22;42335;44.872;20.658;2023-03-22T03:10:27;282.00;2278.40
56436;DHT22;42335;44.872;20.658;2023-03-22T03:12:53;282.10;2278.40
56436;DHT22;42335;44.872;20.658;2023-03-22T03:15:20;282.00;2278.40
56436;DHT22;42335;44.872;20.658;2023-03-22T03:33:32;281.80;2278.40
56436;DHT22;42335;44.872;20.658;2023-03-22T03:36:08;281.80;2278.40
56436;DHT22;42335;44.872;20.658;2023-03-22T03:38:38;281.90;2278.40
56436;DHT22;42335;44.872;20.658;2023-03-22T03:41:20;281.80;2278.40
56436;DHT22;42335;44.872;20.658;2023-03-22T03:43:47;281.80;2278.40
56436;DHT22;42335;44.872;20.658;2023-03-22T03:46:14;281.80;2278.40
56436;DHT22;42335;44.872;20.658;2023-03-22T03:48:42;281.90;2278.40
56436;DHT22;42335;44.872;20.658;2023-03-22T03:51:09;281.80;2278.40
56436;DHT22;42335;44.872;20.658;2023-03-22T03:53:34;281.80;2278.40
56436;DHT22;42335;44.872;20.658;2023-03-22T03:56:00;281.80;2278.40
56436;DHT22;42335;44.872;20.658;2023-03-22T03:58:26;281.70;2278.40
56436;DHT22;42335;44.872;20.658;2023-03-22T04:00:52;281.70;2278.40
56436;DHT22;42335;44.872;20.658;2023-03-22T04:03:17;281.70;2278.40
56436;DHT22;42335;44.872;20.658;2023-03-22T04:05:43;281.70;2278.40
56436;DHT22;42335;44.872;20.658;2023-03-22T04:08:09;281.60;2278.40
56436;DHT22;42335;44.872;20.658;2023-03-22T04:10:35;281.70;2278.40
56436;DHT22;42335;44.872;20.658;2023-03-22T04:13:00;281.70;2278.40
56436;DHT22;42335;44.872;20.658;2023-03-22T04:15:26;281.70;2278.40
56436;DHT22;42335;44.872;20.658;2023-03-22T04:17:52;281.60;2278.40
56436;DHT22;42335;44.872;20.658;2023-03-22T04:20:18;281.60;2278.40
56436;DHT22;42335;44.872;20.658;2023-03-22T04:22:45;281.60;2278.40
56436;DHT22;42335;44.872;20.658;2023-03-22T04:25:14;281.60;2278.40
56436;DHT22;42335;44.872;20.658;2023-03-22T04:27:43;281.60;2278.40
56436;DHT22;42335;44.872;20.658;2023-03-22T04:30:12;281.60;2278.40
56436;DHT22;42335;44.872;20.658;2023-03-22T04:32:43;256.90;2252.80
56436;DHT22;42335;44.872;20.658;2023-03-22T04:35:10;256.80;2252.80
56436;DHT22;42335;44.872;20.658;2023-03-22T04:37:35;256.70;2252.80
56436;DHT22;42335;44.872;20.658;2023-03-22T04:40:01;256.80;2252.80
56436;DHT22;42335;44.872;20.658;2023-03-22T04:42:31;256.80;2252.80
56436;DHT22;42335;44.872;20.658;2023-03-22T04:44:57;256.70;2252.80
56436;DHT22;42335;44.872;20.658;2023-03-22T04:47:23;256.70;2252.80
56436;DHT22;42335;44.872;20.658;2023-03-22T04:49:48;256.60;2252.80
56436;DHT22;42335;44.872;20.658;2023-03-22T04:52:14;256.60;2252.80
56436;DHT22;42335;44.872;20.658;2023-03-22T04:54:40;256.60;2252.80
56436;DHT22;42335;44.872;20.658;2023-03-22T04:57:06;256.70;2252.80
56436;DHT22;42335;44.872;20.658;2023-03-22T04:59:32;256.80;2252.80
56436;DHT22;42335;44.872;20.658;2023-03-22T05:01:57;256.80;2252.80
56436;DHT22;42335;44.872;20.658;2023-03-22T05:04:23;256.80;2252.80
56436;DHT22;42335;44.872;20.658;2023-03-22T05:06:48;256.90;2252.80
56436;DHT22;42335;44.872;20.658;2023-03-22T05:09:14;256.90;2252.80
56436;DHT22;42335;44.872;20.658;2023-03-22T05:11:40;281.60;2278.40
56436;DHT22;42335;44.872;20.658;2023-03-22T05:14:07;281.70;2278.40
56436;DHT22;42335;44.872;20.658;2023-03-22T05:16:33;281.70;2278.40
56436;DHT22;42335;44.872;20.658;2023-03-22T05:18:59;281.70;2278.40
56436;DHT22;42335;44.872;20.658;2023-03-22T05:21:27;281.70;2278.40
56436;DHT22;42335;44.872;20.658;2023-03-22T05:23:57;281.80;2278.40
56436;DHT22;42335;44.872;20.658;2023-03-22T05:26:24;281.90;2278.40
56436;DHT22;42335;44.872;20.658;2023-03-22T05:28:52;281.90;2278.40
56436;DHT22;42335;44.872;20.658;2023-03-22T05:31:19;281.90;2278.40
56436;DHT22;42335;44.872;20.658;2023-03-22T05:33:50;282.00;2278.40
56436;DHT22;42335;44.872;20.658;2023-03-22T05:36:17;282.00;2278.40
56436;DHT22;42335;44.872;20.658;2023-03-22T05:38:44;282.20;2278.40
56436;DHT22;42335;44.872;20.658;2023-03-22T05:41:10;282.40;2278.40
56436;DHT22;42335;44.872;20.658;2023-03-22T05:43:36;282.50;2278.40
56436;DHT22;42335;44.872;20.658;2023-03-22T05:46:09;307.30;2304.00
56436;DHT22;42335;44.872;20.658;2023-03-22T05:48:36;307.40;2304.00
56436;DHT22;42335;44.872;20.658;2023-03-22T05:51:10;307.50;2304.00
56436;DHT22;42335;44.872;20.658;2023-03-22T05:53:38;307.50;2304.00
56436;DHT22;42335;44.872;20.658;2023-03-22T05:56:04;307.50;2304.00
56436;DHT22;42335;44.872;20.658;2023-03-22T05:58:34;307.80;2304.00
56436;DHT22;42335;44.872;20.658;2023-03-22T06:01:05;308.00;2304.00
56436;DHT22;42335;44.872;20.658;2023-03-22T06:03:31;332.90;2329.60
56436;DHT22;42335;44.872;20.658;2023-03-22T06:05:57;333.20;2329.60
56436;DHT22;42335;44.872;20.658;2023-03-22T06:08:23;333.40;2329.60
56436;DHT22;42335;44.872;20.658;2023-03-22T06:10:50;333.70;2329.60
56436;DHT22;42335;44.872;20.658;2023-03-22T06:13:19;358.50;2329.60
56436;DHT22;42335;44.872;20.658;2023-03-22T06:15:45;358.80;2329.60
56436;DHT22;42335;44.872;20.658;2023-03-22T06:18:12;359.00;2304.00
56436;DHT22;42335;44.872;20.658;2023-03-22T06:20:38;359.30;2252.80
56436;DHT22;42335;44.872;20.658;2023-03-22T06:23:04;384.00;2176.00
56436;DHT22;42335;44.872;20.658;2023-03-22T06:25:30;384.30;2124.80
56436;DHT22;42335;44.872;20.658;2023-03-22T06:27:56;384.70;2073.60
56436;DHT22;42335;44.872;20.658;2023-03-22T06:30:21;384.90;1996.80
56436;DHT22;42335;44.872;20.658;2023-03-22T06:32:47;409.60;1996.80
56436;DHT22;42335;44.872;20.658;2023-03-22T06:35:13;409.90;1971.20
56436;DHT22;42335;44.872;20.658;2023-03-22T06:37:40;410.20;1920.00
56436;DHT22;42335;44.872;20.658;2023-03-22T06:40:06;410.40;1894.40
56436;DHT22;42335;44.872;20.658;2023-03-22T06:42:32;435.20;1843.20
56436;DHT22;42335;44.872;20.658;2023-03-22T06:44:58;435.30;1843.20
56436;DHT22;42335;44.872;20.658;2023-03-22T06:47:24;435.60;1792.00
56436;DHT22;42335;44.872;20.658;2023-03-22T06:49:50;435.70;1766.40
56436;DHT22;42335;44.872;20.658;2023-03-22T06:52:16;435.90;1740.80
56436;DHT22;42335;44.872;20.658;2023-03-22T06:54:42;435.90;1715.20
56436;DHT22;42335;44.872;20.658;2023-03-22T06:57:07;436.10;1715.20
56436;DHT22;42335;44.872;20.658;2023-03-22T06:59:33;460.80;1766.40
56436;DHT22;42335;44.872;20.658;2023-03-22T07:01:59;460.90;1715.20
56436;DHT22;42335;44.872;20.658;2023-03-22T07:04:24;461.20;1715.20
56436;DHT22;42335;44.872;20.658;2023-03-22T07:06:52;461.00;1689.60
56436;DHT22;42335;44.872;20.658;2023-03-22T07:09:17;461.10;1689.60
56436;DHT22;42335;44.872;20.658;2023-03-22T07:11:43;461.10;1664.00
56436;DHT22;42335;44.872;20.658;2023-03-22T07:14:09;461.20;1689.60
56436;DHT22;42335;44.872;20.658;2023-03-22T07:16:35;461.20;1664.00
56436;DHT22;42335;44.872;20.658;2023-03-22T07:19:01;461.50;1664.00
56436;DHT22;42335;44.872;20.658;2023-03-22T07:21:26;461.40;1638.40
56436;DHT22;42335;44.872;20.658;2023-03-22T07:23:52;461.50;1638.40
56436;DHT22;42335;44.872;20.658;2023-03-22T07:26:19;461.50;1612.80
56436;DHT22;42335;44.872;20.658;2023-03-22T07:28:45;461.60;1612.80
56436;DHT22;42335;44.872;20.658;2023-03-22T07:31:11;461.50;1612.80
56436;DHT22;42335;44.872;20.658;2023-03-22T07:33:39;461.70;1587.20
56436;DHT22;42335;44.872;20.658;2023-03-22T07:36:06;486.60;1561.60
56436;DHT22;42335;44.872;20.658;2023-03-22T07:38:32;487.10;1510.40
56436;DHT22;42335;44.872;20.658;2023-03-22T07:40:58;512.60;1459.20
56436;DHT22;42335;44.872;20.658;2023-03-22T07:43:23;538.30;1382.40
56436;DHT22;42335;44.872;20.658;2023-03-22T07:48:17;589.20;1305.60
56436;DHT22;42335;44.872;20.658;2023-03-22T07:50:43;589.30;1254.40
56436;DHT22;42335;44.872;20.658;2023-03-22T07:53:09;589.10;1280.00
56436;DHT22;42335;44.872;20.658;2023-03-22T07:55:36;589.20;1305.60
56436;DHT22;42335;44.872;20.658;2023-03-22T07:58:02;589.00;1280.00
56436;DHT22;42335;44.872;20.658;2023-03-22T08:00:28;589.00;1280.00
56436;DHT22;42335;44.872;20.658;2023-03-22T08:02:54;588.90;1305.60
56436;DHT22;42335;44.872;20.658;2023-03-22T08:05:20;588.90;1280.00
56436;DHT22;42335;44.872;20.658;2023-03-22T08:07:47;564.10;1305.60
56436;DHT22;42335;44.872;20.658;2023-03-22T08:10:13;563.90;1331.20
56436;DHT22;42335;44.872;20.658;2023-03-22T08:12:39;563.70;1331.20
56436;DHT22;42335;44.872;20.658;2023-03-22T08:15:05;563.90;1331.20
56436;DHT22;42335;44.872;20.658;2023-03-22T08:17:33;563.60;1356.80
56436;DHT22;42335;44.872;20.658;2023-03-22T08:19:59;563.60;1356.80
56436;DHT22;42335;44.872;20.658;2023-03-22T08:22:25;564.00;1356.80
56436;DHT22;42335;44.872;20.658;2023-03-22T08:27:20;589.00;1331.20
56436;DHT22;42335;44.872;20.658;2023-03-22T08:29:46;564.10;1331.20
56436;DHT22;42335;44.872;20.658;2023-03-22T08:32:14;588.90;1305.60
56436;DHT22;42335;44.872;20.658;2023-03-22T08:34:40;589.00;1305.60
56436;DHT22;42335;44.872;20.658;2023-03-22T08:37:06;589.30;1305.60
56436;DHT22;42335;44.872;20.658;2023-03-22T08:39:33;589.50;1305.60
56436;DHT22;42335;44.872;20.658;2023-03-22T08:41:59;589.40;1280.00
56436;DHT22;42335;44.872;20.658;2023-03-22T08:44:25;589.60;1280.00
56436;DHT22;42335;44.872;20.658;2023-03-22T08:46:51;614.50;1228.80
56436;DHT22;42335;44.872;20.658;2023-03-22T08:49:16;614.90;1203.20
56436;DHT22;42335;44.872;20.658;2023-03-22T08:51:42;615.00;1203.20
56436;DHT22;42335;44.872;20.658;2023-03-22T08:54:08;615.20;1177.60
56436;DHT22;42335;44.872;20.658;2023-03-22T08:56:34;640.00;1177.60
56436;DHT22;42335;44.872;20.658;2023-03-22T08:59:06;640.40;1152.00
56436;DHT22;42335;44.872;20.658;2023-03-22T09:01:36;640.60;1152.00
56436;DHT22;42335;44.872;20.658;2023-03-22T09:04:02;640.70;1152.00
56436;DHT22;42335;44.872;20.658;2023-03-22T09:06:29;640.70;1126.40
56436;DHT22;42335;44.872;20.658;2023-03-22T09:08:55;665.70;1152.00
56436;DHT22;42335;44.872;20.658;2023-03-22T09:11:21;666.00;1126.40
56436;DHT22;42335;44.872;20.658;2023-03-22T09:13:49;640.90;1126.40
56436;DHT22;42335;44.872;20.658;2023-03-22T09:18:43;666.20;1100.80
56436;DHT22;42335;44.872;20.658;2023-03-22T09:21:10;665.70;1126.40
56436;DHT22;42335;44.872;20.658;2023-03-22T09:23:37;666.20;1100.80
56436;DHT22;42335;44.872;20.658;2023-03-22T09:26:08;666.30;1100.80
56436;DHT22;42335;44.872;20.658;2023-03-22T09:28:34;666.30;1100.80
56436;DHT22;42335;44.872;20.658;2023-03-22T09:31:06;691.50;1075.20
56436;DHT22;42335;44.872;20.658;2023-03-22T09:33:33;691.40;1075.20
56436;DHT22;42335;44.872;20.658;2023-03-22T09:35:59;717.10;1049.60
56436;DHT22;42335;44.872;20.658;2023-03-22T09:38:25;716.90;1049.60
56436;DHT22;42335;44.872;20.658;2023-03-22T09:50:56;717.50;1024.00
56436;DHT22;42335;44.872;20.658;2023-03-22T09:53:26;717.40;1024.00
56436;DHT22;42335;44.872;20.658;2023-03-22T10:01:03;717.50;998.40
56436;DHT22;42335;44.872;20.658;2023-03-22T10:03:55;716.90;1049.60
56436;DHT22;42335;44.872;20.658;2023-03-22T10:06:26;692.10;1024.00
56436;DHT22;42335;44.872;20.658;2023-03-22T10:17:01;692.10;1024.00
56436;DHT22;42335;44.872;20.658;2023-03-22T10:19:47;691.90;1024.00
56436;DHT22;42335;44.872;20.658;2023-03-22T10:22:16;692.10;1024.00
56436;DHT22;42335;44.872;20.658;2023-03-22T10:24:45;692.10;1024.00
56436;DHT22;42335;44.872;20.658;2023-03-22T10:27:18;716.90;1049.60
56436;DHT22;42335;44.872;20.658;2023-03-22T10:30:06;716.80;1049.60
56436;DHT22;42335;44.872;20.658;2023-03-22T10:32:45;692.10;1024.00
56436;DHT22;42335;44.872;20.658;2023-03-22T10:35:15;717.10;1024.00
56436;DHT22;42335;44.872;20.658;2023-03-22T10:37:44;717.20;1024.00
56436;DHT22;42335;44.872;20.658;2023-03-22T10:40:26;717.10;1024.00
56436;DHT22;42335;44.872;20.658;2023-03-22T10:43:00;716.80;1049.60
56436;DHT22;42335;44.872;20.658;2023-03-22T10:48:02;691.90;1024.00
56436;DHT22;42335;44.872;20.658;2023-03-22T10:50:33;716.80;1024.00
56436;DHT22;42335;44.872;20.658;2023-03-22T10:55:38;717.10;1024.00
56436;DHT22;42335;44.872;20.658;2023-03-22T10:58:19;717.20;998.40
56436;DHT22;42335;44.872;20.658;2023-03-22T11:01:12;717.10;1024.00
56436;DHT22;42335;44.872;20.658;2023-03-22T11:03:49;717.40;998.40
56436;DHT22;42335;44.872;20.658;2023-03-22T11:06:39;717.70;972.80
56436;DHT22;42335;44.872;20.658;2023-03-22T11:09:11;717.70;998.40
56436;DHT22;42335;44.872;20.658;2023-03-22T11:11:54;717.70;998.40
56436;DHT22;42335;44.872;20.658;2023-03-22T11:14:28;717.60;972.80
56436;DHT22;42335;44.872;20.658;2023-03-22T11:17:07;717.50;972.80
56436;DHT22;42335;44.872;20.658;2023-03-22T11:19:38;717.50;972.80
56436;DHT22;42335;44.872;20.658;2023-03-22T11:22:51;717.40;972.80
56436;DHT22;42335;44.872;20.658;2023-03-22T11:24:54;717.50;972.80
56436;DHT22;42335;44.872;20.658;2023-03-22T11:27:31;717.70;972.80
56436;DHT22;42335;44.872;20.658;2023-03-22T11:30:24;742.50;947.20
56436;DHT22;42335;44.872;20.658;2023-03-22T11:33:01;717.50;947.20
56436;DHT22;42335;44.872;20.658;2023-03-22T11:35:36;717.20;972.80
56436;DHT22;42335;44.872;20.658;2023-03-22T11:38:03;717.40;998.40
56436;DHT22;42335;44.872;20.658;2023-03-22T11:40:32;717.70;947.20
56436;DHT22;42335;44.872;20.658;2023-03-22T11:45:31;717.70;921.60
56436;DHT22;42335;44.872;20.658;2023-03-22T11:48:20;717.50;921.60
56436;DHT22;42335;44.872;20.658;2023-03-22T11:50:48;717.30;947.20
56436;DHT22;42335;44.872;20.658;2023-03-22T11:53:24;717.20;921.60
56436;DHT22;42335;44.872;20.658;2023-03-22T11:55:53;717.40;921.60
56436;DHT22;42335;44.872;20.658;2023-03-22T11:58:57;717.30;896.00
56436;DHT22;42335;44.872;20.658;2023-03-22T12:01:45;717.10;947.20
56436;DHT22;42335;44.872;20.658;2023-03-22T12:04:17;717.40;921.60
56436;DHT22;42335;44.872;20.658;2023-03-22T12:06:45;717.40;921.60
56436;DHT22;42335;44.872;20.658;2023-03-22T12:09:23;717.10;921.60
56436;DHT22;42335;44.872;20.658;2023-03-22T12:11:55;716.80;947.20
56436;DHT22;42335;44.872;20.658;2023-03-22T12:14:28;716.90;947.20
56436;DHT22;42335;44.872;20.658;2023-03-22T12:22:40;716.90;947.20
56436;DHT22;42335;44.872;20.658;2023-03-22T12:25:15;691.90;947.20
56436;DHT22;42335;44.872;20.658;2023-03-22T12:27:46;691.60;947.20
56436;DHT22;42335;44.872;20.658;2023-03-22T12:30:19;666.50;972.80
56436;DHT22;42335;44.872;20.658;2023-03-22T13:42:49;564.00;1203.20
56436;DHT22;42335;44.872;20.658;2023-03-22T13:45:30;563.70;1203.20
56436;DHT22;42335;44.872;20.658;2023-03-22T13:48:10;563.60;1254.40
56436;DHT22;42335;44.872;20.658;2023-03-22T13:50:36;563.40;1254.40
56436;DHT22;42335;44.872;20.658;2023-03-22T13:53:04;563.40;1228.80
56436;DHT22;42335;44.872;20.658;2023-03-22T13:58:02;563.20;1228.80
56436;DHT22;42335;44.872;20.658;2023-03-22T14:03:00;538.50;1228.80
56436;DHT22;42335;44.872;20.658;2023-03-22T14:05:31;538.50;1228.80
56436;DHT22;42335;44.872;20.658;2023-03-22T14:07:59;538.40;1228.80
56436;DHT22;42335;44.872;20.658;2023-03-22T14:13:22;563.20;1254.40
56436;DHT22;42335;44.872;20.658;2023-03-22T14:15:55;563.50;1203.20
56436;DHT22;42335;44.872;20.658;2023-03-22T14:18:32;563.70;1203.20
56436;DHT22;42335;44.872;20.658;2023-03-22T14:21:02;563.80;1177.60
56436;DHT22;42335;44.872;20.658;2023-03-22T14:26:18;563.80;1177.60
56436;DHT22;42335;44.872;20.658;2023-03-22T14:28:46;563.90;1177.60
56436;DHT22;42335;44.872;20.658;2023-03-22T14:31:32;563.70;1203.20
56436;DHT22;42335;44.872;20.658;2023-03-22T14:34:11;563.60;1203.20
56436;DHT22;42335;44.872;20.658;2023-03-22T14:36:41;563.40;1228.80
56436;DHT22;42335;44.872;20.658;2023-03-22T14:39:19;538.50;1228.80
56436;DHT22;42335;44.872;20.658;2023-03-22T14:42:02;538.30;1254.40
56436;DHT22;42335;44.872;20.658;2023-03-22T14:47:15;538.00;1254.40
56436;DHT22;42335;44.872;20.658;2023-03-22T14:52:17;537.90;1280.00
56436;DHT22;42335;44.872;20.658;2023-03-22T14:54:46;512.90;1254.40
56436;DHT22;42335;44.872;20.658;2023-03-22T14:57:13;512.90;1254.40
56436;DHT22;42335;44.872;20.658;2023-03-22T14:59:41;512.90;1254.40
56436;DHT22;42335;44.872;20.658;2023-03-22T15:05:15;537.60;1280.00
56436;DHT22;42335;44.872;20.658;2023-03-22T15:07:50;512.90;1254.40
56436;DHT22;42335;44.872;20.658;2023-03-22T15:10:25;537.60;1254.40
56436;DHT22;42335;44.872;20.658;2023-03-22T15:12:53;537.80;1254.40
56436;DHT22;42335;44.872;20.658;2023-03-22T15:15:25;538.00;1254.40
56436;DHT22;42335;44.872;20.658;2023-03-22T15:17:51;538.00;1228.80
56436;DHT22;42335;44.872;20.658;2023-03-22T15:20:24;538.00;1254.40
56436;DHT22;42335;44.872;20.658;2023-03-22T15:22:53;538.00;1228.80
56436;DHT22;42335;44.872;20.658;2023-03-22T15:25:24;538.10;1203.20
56436;DHT22;42335;44.872;20.658;2023-03-22T15:27:51;538.10;1228.80
56436;DHT22;42335;44.872;20.658;2023-03-22T15:30:19;538.30;1254.40
56436;DHT22;42335;44.872;20.658;2023-03-22T15:32:45;538.30;1203.20
56436;DHT22;42335;44.872;20.658;2023-03-22T15:35:16;538.30;1177.60
56436;DHT22;42335;44.872;20.658;2023-03-22T15:37:48;538.20;1177.60
56436;DHT22;42335;44.872;20.658;2023-03-22T15:40:36;538.20;1203.20
56436;DHT22;42335;44.872;20.658;2023-03-22T15:43:33;538.10;1203.20
56436;DHT22;42335;44.872;20.658;2023-03-22T15:46:12;538.00;1228.80
